Time;durP1;ratioP1;P1;durP2;ratioP2;P2;SDS_P1;SDS_P2;PMS_P1;PMS_P2;Temp;Humidity;BMP_temperature;BMP_pressure;BME280_temperature;BME280_humidity;BME280_pressure;Samples;Min_cycle;Max_cycle;Signal;HPM_P1;HPM_P2
2022/07/17 00:02:26;;;;;;;1.60;0.32;;;16.30;99.90;;;;;;5012700;28;20026;-68
2022/07/17 00:04:53;;;;;;;1.15;0.40;;;16.30;99.90;;;;;;5009618;28;20025;-69
2022/07/17 00:07:20;;;;;;;1.08;0.20;;;16.50;99.90;;;;;;5019852;28;20037;-66
2022/07/17 00:09:47;;;;;;;3.95;0.50;;;16.60;99.90;;;;;;5027979;28;20030;-66
2022/07/17 00:12:15;;;;;;;0.55;0.20;;;16.80;99.90;;;;;;5016874;28;20105;-66
2022/07/17 00:14:42;;;;;;;0.60;0.45;;;16.80;99.90;;;;;;5023677;28;20025;-66
2022/07/17 00:17:09;;;;;;;1.73;0.30;;;16.80;99.90;;;;;;5017639;28;20117;-66
2022/07/17 00:19:36;;;;;;;1.17;0.40;;;17.00;99.90;;;;;;5019136;28;20037;-67
2022/07/17 00:22:04;;;;;;;2.92;0.30;;;17.20;99.90;;;;;;5019516;28;20038;-66
2022/07/17 00:24:31;;;;;;;1.45;0.25;;;17.00;99.90;;;;;;5025573;28;20093;-66
2022/07/17 00:26:58;;;;;;;1.65;0.32;;;17.10;99.90;;;;;;5028016;28;20025;-66
2022/07/17 00:29:25;;;;;;;1.40;0.55;;;17.10;99.90;;;;;;5024811;28;20030;-65
2022/07/17 00:31:53;;;;;;;1.38;0.25;;;17.20;99.90;;;;;;5025298;28;20018;-66
2022/07/17 00:34:20;;;;;;;2.97;0.43;;;17.30;99.70;;;;;;5028164;28;20026;-66
2022/07/17 00:36:47;;;;;;;2.70;0.20;;;17.40;99.80;;;;;;5030769;28;20033;-66
2022/07/17 00:39:14;;;;;;;0.93;0.22;;;17.50;99.00;;;;;;5028717;28;20188;-65
2022/07/17 00:41:45;;;;;;;2.22;0.40;;;17.60;98.50;;;;;;5031591;28;20013;-65
2022/07/17 00:44:12;;;;;;;2.30;0.40;;;17.60;98.10;;;;;;5028935;28;20018;-66
2022/07/17 00:46:40;;;;;;;2.38;0.38;;;17.70;98.00;;;;;;5023120;28;20088;-65
2022/07/17 00:49:08;;;;;;;1.85;0.30;;;17.80;98.10;;;;;;5024542;28;20098;-66
2022/07/17 00:51:36;;;;;;;1.73;0.52;;;17.80;98.00;;;;;;5027620;28;20088;-65
2022/07/17 00:54:04;;;;;;;0.98;0.30;;;17.80;98.00;;;;;;5023491;28;20026;-64
2022/07/17 00:56:33;;;;;;;2.25;0.20;;;17.90;97.30;;;;;;5022229;28;20022;-65
2022/07/17 00:59:02;;;;;;;1.50;0.40;;;18.00;97.80;;;;;;5022761;28;20013;-65
2022/07/17 01:01:31;;;;;;;0.85;0.20;;;18.10;97.10;;;;;;5024979;28;20060;-65
2022/07/17 01:03:58;;;;;;;0.85;0.30;;;18.00;97.60;;;;;;5028380;28;20089;-66
2022/07/17 01:06:26;;;;;;;0.70;0.20;;;18.10;97.60;;;;;;5017344;28;20022;-66
2022/07/17 01:08:53;;;;;;;0.85;0.22;;;18.10;97.70;;;;;;5026106;28;20767;-67
2022/07/17 01:11:21;;;;;;;0.40;0.20;;;18.10;97.20;;;;;;5020522;28;20038;-66
2022/07/17 01:13:49;;;;;;;1.50;0.30;;;18.30;97.10;;;;;;5020957;28;20036;-66
2022/07/17 01:16:16;;;;;;;2.33;0.47;;;18.20;96.70;;;;;;5014321;28;20026;-68
2022/07/17 01:18:43;;;;;;;1.17;0.30;;;18.30;96.70;;;;;;5000199;28;20061;-67
2022/07/17 01:21:11;;;;;;;2.17;0.98;;;18.60;96.20;;;;;;4997777;28;20451;-67
2022/07/17 01:23:38;;;;;;;3.00;0.60;;;18.60;96.10;;;;;;5005545;28;20025;-66
2022/07/17 01:26:05;;;;;;;0.85;0.38;;;18.60;95.20;;;;;;5001909;28;20057;-66
2022/07/17 01:28:32;;;;;;;0.88;0.30;;;18.60;95.40;;;;;;5018296;28;20026;-67
2022/07/17 01:31:03;;;;;;;3.80;0.50;;;18.70;95.90;;;;;;5007740;28;20030;-67
2022/07/17 01:33:30;;;;;;;2.28;0.45;;;18.80;95.60;;;;;;5027652;28;20560;-67
2022/07/17 01:35:58;;;;;;;1.15;0.20;;;18.80;95.60;;;;;;5031042;28;20018;-66
2022/07/17 01:38:25;;;;;;;2.08;0.68;;;18.80;95.60;;;;;;5011626;28;20100;-66
2022/07/17 01:40:52;;;;;;;1.00;0.20;;;18.90;95.40;;;;;;5013710;28;20029;-67
2022/07/17 01:43:20;;;;;;;0.50;0.20;;;18.90;95.60;;;;;;5013351;28;20101;-67
2022/07/17 01:45:47;;;;;;;1.23;0.47;;;18.90;95.30;;;;;;5012318;28;20023;-66
2022/07/17 01:48:25;;;;;;;2.20;0.20;;;18.90;95.20;;;;;;5012325;28;20050;-67
2022/07/17 01:50:52;;;;;;;1.02;0.20;;;19.10;95.50;;;;;;5011625;28;20113;-66
2022/07/17 01:53:19;;;;;;;2.40;0.30;;;19.30;95.10;;;;;;5012300;28;20046;-67
2022/07/17 01:55:48;;;;;;;0.95;0.20;;;19.30;95.90;;;;;;5015961;28;20033;-66
2022/07/17 01:58:15;;;;;;;0.80;0.20;;;19.50;94.90;;;;;;5013876;28;20038;-67
2022/07/17 02:00:46;;;;;;;1.58;0.30;;;19.50;94.50;;;;;;5011461;28;20045;-66
2022/07/17 02:03:13;;;;;;;1.20;0.30;;;19.50;94.30;;;;;;5012807;28;20285;-67
2022/07/17 02:05:40;;;;;;;0.93;0.10;;;19.50;94.20;;;;;;5009401;28;20055;-66
2022/07/17 02:08:07;;;;;;;3.97;0.20;;;19.80;94.40;;;;;;5012592;28;20038;-66
2022/07/17 02:10:35;;;;;;;0.52;0.20;;;20.10;94.10;;;;;;5009623;28;20026;-66
2022/07/17 02:13:03;;;;;;;1.50;0.20;;;20.30;93.70;;;;;;5018687;28;20041;-67
2022/07/17 02:15:30;;;;;;;0.47;0.13;;;20.40;93.80;;;;;;5032246;28;20026;-66
2022/07/17 02:17:57;;;;;;;1.63;0.65;;;20.60;93.60;;;;;;5030389;28;20030;-66
2022/07/17 02:20:26;;;;;;;1.92;0.35;;;20.60;93.00;;;;;;5030021;28;20026;-66
2022/07/17 02:22:53;;;;;;;1.63;0.22;;;20.90;91.50;;;;;;5027388;28;20026;-66
2022/07/17 02:25:20;;;;;;;0.93;0.10;;;20.90;91.00;;;;;;5028457;28;20517;-67
2022/07/17 02:27:47;;;;;;;2.60;0.20;;;21.00;90.40;;;;;;5011380;28;20045;-66
2022/07/17 02:30:17;;;;;;;2.10;0.20;;;20.90;90.10;;;;;;5009830;28;20029;-65
2022/07/17 02:32:45;;;;;;;0.30;0.15;;;21.00;90.10;;;;;;5008195;28;20110;-66
2022/07/17 02:35:13;;;;;;;6.63;0.77;;;21.10;90.00;;;;;;5010458;28;20038;-66
2022/07/17 02:37:45;;;;;;;0.28;0.05;;;21.10;89.10;;;;;;5023035;28;20454;-66
2022/07/17 02:40:13;;;;;;;2.70;0.20;;;21.00;88.90;;;;;;5029459;28;20497;-66
2022/07/17 02:42:41;;;;;;;0.93;0.15;;;21.10;88.90;;;;;;5030314;28;20057;-67
2022/07/17 02:45:09;;;;;;;1.40;0.20;;;21.10;89.30;;;;;;5027931;28;20040;-65
2022/07/17 02:47:37;;;;;;;1.35;0.28;;;21.00;89.40;;;;;;5016851;28;20050;-66
2022/07/17 02:50:06;;;;;;;2.72;0.15;;;21.30;90.00;;;;;;5010529;28;20085;-66
2022/07/17 02:52:33;;;;;;;0.95;0.10;;;21.50;90.60;;;;;;5019012;28;20034;-66
2022/07/17 02:55:01;;;;;;;2.53;0.22;;;21.50;90.10;;;;;;5026664;28;20022;-67
2022/07/17 02:57:28;;;;;;;3.25;0.20;;;21.60;89.90;;;;;;5009505;28;20053;-66
2022/07/17 02:59:55;;;;;;;1.05;0.15;;;21.20;89.10;;;;;;5008120;28;20045;-66
2022/07/17 03:02:23;;;;;;;4.10;0.52;;;21.00;89.40;;;;;;5009253;28;20034;-66
2022/07/17 03:04:50;;;;;;;0.95;0.20;;;20.80;88.20;;;;;;5005630;28;20406;-66
2022/07/17 03:07:17;;;;;;;1.80;0.22;;;20.70;88.90;;;;;;5014033;28;20026;-66
2022/07/17 03:09:44;;;;;;;2.10;0.20;;;20.90;88.90;;;;;;5014598;28;20022;-66
2022/07/17 03:12:12;;;;;;;1.17;0.10;;;20.90;89.00;;;;;;5007604;28;20034;-67
2022/07/17 03:14:39;;;;;;;1.08;0.10;;;21.00;88.50;;;;;;5018522;28;20104;-66
2022/07/17 03:17:06;;;;;;;1.13;0.20;;;20.90;87.80;;;;;;5015939;28;20081;-66
2022/07/17 03:19:34;;;;;;;0.95;0.30;;;20.90;88.20;;;;;;5007201;28;20033;-67
2022/07/17 03:22:01;;;;;;;1.48;0.10;;;21.00;88.30;;;;;;5006127;28;20018;-67
2022/07/17 03:24:29;;;;;;;2.00;0.10;;;20.90;87.10;;;;;;5005704;28;20030;-66
2022/07/17 03:26:56;;;;;;;0.45;0.20;;;20.80;87.30;;;;;;5011972;28;20026;-67
2022/07/17 03:29:23;;;;;;;0.28;0.10;;;20.70;88.10;;;;;;5006127;28;20038;-66
2022/07/17 03:31:51;;;;;;;1.08;0.10;;;20.90;88.10;;;;;;5013667;28;20037;-66
2022/07/17 03:34:18;;;;;;;0.55;0.10;;;20.80;88.50;;;;;;5026079;28;20474;-66
2022/07/17 03:36:46;;;;;;;1.30;0.10;;;20.70;87.00;;;;;;5025208;28;20022;-67
2022/07/17 03:39:14;;;;;;;0.47;0.20;;;20.70;87.40;;;;;;5025812;28;20080;-67
2022/07/17 03:41:41;;;;;;;1.48;0.17;;;20.80;86.80;;;;;;5020236;28;20034;-67
2022/07/17 03:44:09;;;;;;;1.83;0.10;;;20.50;87.00;;;;;;5021230;28;20025;-66
2022/07/17 03:46:36;;;;;;;1.33;0.20;;;20.40;86.60;;;;;;5017162;28;20382;-66
2022/07/17 03:49:04;;;;;;;0.82;0.10;;;20.40;86.60;;;;;;5006116;28;20061;-66
2022/07/17 03:51:31;;;;;;;2.92;0.20;;;20.40;86.60;;;;;;5022063;28;20034;-66
2022/07/17 03:53:58;;;;;;;0.20;0.10;;;20.30;86.30;;;;;;5005066;28;20084;-66
2022/07/17 03:56:26;;;;;;;1.48;0.10;;;20.30;85.60;;;;;;5001491;28;20082;-66
2022/07/17 03:58:53;;;;;;;1.98;0.10;;;20.20;85.70;;;;;;5004486;28;20026;-66
2022/07/17 04:01:23;;;;;;;1.40;0.10;;;20.40;85.40;;;;;;5018804;28;20053;-66
2022/07/17 04:03:50;;;;;;;1.90;0.30;;;20.30;85.90;;;;;;5020128;28;20030;-66
2022/07/17 04:06:18;;;;;;;2.22;0.13;;;20.30;86.20;;;;;;5022936;28;20025;-66
2022/07/17 04:08:45;;;;;;;0.55;0.10;;;20.30;85.80;;;;;;5007504;28;20022;-66
2022/07/17 04:11:12;;;;;;;1.30;0.20;;;20.20;86.20;;;;;;5004150;28;20041;-66
2022/07/17 04:13:39;;;;;;;2.25;0.10;;;20.30;85.80;;;;;;5010618;28;20028;-67
2022/07/17 04:16:07;;;;;;;1.95;0.10;;;20.20;85.00;;;;;;5024044;28;20030;-66
2022/07/17 04:18:36;;;;;;;0.73;0.10;;;20.10;84.80;;;;;;5023696;28;20026;-67
2022/07/17 04:21:09;;;;;;;0.10;0.10;;;20.10;85.50;;;;;;5025748;28;20064;-66
2022/07/17 04:23:37;;;;;;;0.85;0.20;;;20.10;85.00;;;;;;5029324;28;20519;-66
2022/07/17 04:26:09;;;;;;;1.02;0.10;;;20.10;85.00;;;;;;5007490;28;20172;-67
2022/07/17 04:28:36;;;;;;;0.30;0.00;;;20.10;85.10;;;;;;5006393;28;20056;-67
2022/07/17 04:31:03;;;;;;;2.00;0.20;;;20.00;84.90;;;;;;5001170;28;20042;-66
2022/07/17 04:33:31;;;;;;;1.45;0.15;;;19.90;84.70;;;;;;5004249;28;20049;-66
2022/07/17 04:35:58;;;;;;;1.38;0.10;;;20.00;84.70;;;;;;5002251;28;20398;-66
2022/07/17 04:38:25;;;;;;;0.80;0.10;;;20.00;84.60;;;;;;5006259;28;20366;-67
2022/07/17 04:40:52;;;;;;;1.30;0.30;;;20.00;84.40;;;;;;5023196;28;20021;-66
2022/07/17 04:43:19;;;;;;;3.00;0.30;;;20.10;84.80;;;;;;5016336;28;20022;-66
2022/07/17 04:45:47;;;;;;;1.27;0.30;;;20.00;83.90;;;;;;5004297;28;20026;-66
2022/07/17 04:48:14;;;;;;;0.20;0.10;;;20.00;84.60;;;;;;5018518;28;20046;-67
2022/07/17 04:50:41;;;;;;;1.60;0.10;;;20.00;84.20;;;;;;5021931;28;20045;-66
2022/07/17 04:53:09;;;;;;;0.47;0.10;;;20.00;84.00;;;;;;5003364;28;20027;-66
2022/07/17 04:55:39;;;;;;;1.35;0.30;;;20.00;84.40;;;;;;4999926;28;20085;-67
2022/07/17 04:58:06;;;;;;;1.20;0.10;;;19.90;83.60;;;;;;5003258;28;20023;-66
2022/07/17 05:00:33;;;;;;;1.20;0.20;;;19.90;84.20;;;;;;5001547;28;20030;-67
2022/07/17 05:03:01;;;;;;;1.92;0.40;;;19.80;85.00;;;;;;5003074;28;20034;-66
2022/07/17 05:05:28;;;;;;;1.75;0.90;;;19.80;84.50;;;;;;5004562;28;20022;-66
2022/07/17 05:07:55;;;;;;;0.32;0.15;;;19.80;84.10;;;;;;5006476;28;20058;-66
2022/07/17 05:10:22;;;;;;;0.30;0.10;;;19.80;84.60;;;;;;5003191;28;20030;-67
2022/07/17 05:12:50;;;;;;;0.40;0.20;;;19.80;85.60;;;;;;5003851;28;20121;-67
2022/07/17 05:15:17;;;;;;;1.20;0.25;;;19.80;85.40;;;;;;5020749;28;20049;-66
2022/07/17 05:17:44;;;;;;;1.90;0.13;;;19.90;85.10;;;;;;5008977;28;20030;-66
2022/07/17 05:20:12;;;;;;;1.98;0.10;;;19.80;83.90;;;;;;5002688;28;20021;-65
2022/07/17 05:22:39;;;;;;;1.45;0.20;;;19.80;84.20;;;;;;5001793;28;20113;-66
2022/07/17 05:25:07;;;;;;;2.28;0.10;;;19.80;84.90;;;;;;5001274;28;20033;-66
2022/07/17 05:27:34;;;;;;;1.75;0.20;;;19.80;84.60;;;;;;5010800;28;20029;-66
2022/07/17 05:30:01;;;;;;;1.05;0.20;;;19.80;84.40;;;;;;5018437;28;20491;-66
2022/07/17 05:32:28;;;;;;;0.73;0.08;;;19.80;84.40;;;;;;5006933;28;20097;-66
2022/07/17 05:34:55;;;;;;;1.35;0.10;;;19.80;83.50;;;;;;5019147;28;20113;-67
2022/07/17 05:37:26;;;;;;;0.70;0.10;;;19.70;84.40;;;;;;5013647;28;20034;-67
2022/07/17 05:39:53;;;;;;;0.70;0.20;;;19.70;84.50;;;;;;5001953;28;20038;-66
2022/07/17 05:42:20;;;;;;;1.35;0.10;;;19.70;83.80;;;;;;4999232;28;20026;-67
2022/07/17 05:44:47;;;;;;;1.15;0.30;;;19.60;83.70;;;;;;5001478;28;20391;-67
2022/07/17 05:47:15;;;;;;;0.60;0.20;;;19.60;82.80;;;;;;5002238;28;20053;-67
2022/07/17 05:49:42;;;;;;;1.58;0.10;;;19.60;83.30;;;;;;5000313;28;20446;-67
2022/07/17 05:52:12;;;;;;;0.30;0.08;;;19.60;83.10;;;;;;5006099;28;20057;-67
2022/07/17 05:54:39;;;;;;;1.35;0.10;;;19.60;83.70;;;;;;5000830;28;20037;-66
2022/07/17 05:57:07;;;;;;;1.50;0.60;;;19.50;83.10;;;;;;5001617;28;20026;-67
2022/07/17 05:59:34;;;;;;;0.82;0.20;;;19.60;83.80;;;;;;5002070;28;20049;-66
2022/07/17 06:02:01;;;;;;;1.83;0.20;;;19.50;84.10;;;;;;5002636;28;20046;-66
2022/07/17 06:04:29;;;;;;;2.47;0.22;;;19.50;83.50;;;;;;5000721;28;20515;-66
2022/07/17 06:06:56;;;;;;;0.75;0.25;;;19.40;83.30;;;;;;5006611;28;20025;-66
2022/07/17 06:09:23;;;;;;;1.33;0.20;;;19.40;83.10;;;;;;5000263;28;20093;-66
2022/07/17 06:11:50;;;;;;;1.48;0.20;;;19.30;83.40;;;;;;5002382;28;20121;-66
2022/07/17 06:14:18;;;;;;;0.60;0.10;;;19.20;82.50;;;;;;5009771;28;20026;-66
2022/07/17 06:16:45;;;;;;;0.15;0.10;;;19.30;83.30;;;;;;5012910;28;20022;-65
2022/07/17 06:19:12;;;;;;;0.00;0.00;;;19.20;82.70;;;;;;5002786;28;20466;-67
2022/07/17 06:21:39;;;;;;;2.38;0.17;;;19.10;83.30;;;;;;5003526;28;20030;-67
2022/07/17 06:24:06;;;;;;;1.65;0.20;;;19.10;83.00;;;;;;5003293;28;20056;-66
2022/07/17 06:26:34;;;;;;;1.02;0.15;;;19.10;82.20;;;;;;5003490;28;20049;-65
2022/07/17 06:29:01;;;;;;;3.15;0.55;;;19.10;81.50;;;;;;5010140;28;20036;-66
2022/07/17 06:31:29;;;;;;;2.25;0.28;;;19.00;82.10;;;;;;5008783;28;20076;-67
2022/07/17 06:33:56;;;;;;;2.97;0.20;;;18.90;82.50;;;;;;5013129;28;20041;-67
2022/07/17 06:36:23;;;;;;;2.28;0.10;;;18.90;81.90;;;;;;5010445;28;20049;-66
2022/07/17 06:38:50;;;;;;;0.17;0.10;;;18.80;82.00;;;;;;5015383;28;20034;-66
2022/07/17 06:41:17;;;;;;;2.47;0.22;;;18.80;82.20;;;;;;5029756;28;20023;-66
2022/07/17 06:43:45;;;;;;;0.65;0.30;;;18.70;82.40;;;;;;5022666;28;20598;-67
2022/07/17 06:46:12;;;;;;;0.93;0.20;;;18.70;81.80;;;;;;5021051;28;20041;-66
2022/07/17 06:48:39;;;;;;;1.75;0.20;;;18.70;81.90;;;;;;5016789;28;20046;-67
2022/07/17 06:51:06;;;;;;;0.85;0.32;;;18.60;81.90;;;;;;5024133;28;20030;-66
2022/07/17 06:53:33;;;;;;;0.38;0.20;;;18.60;82.20;;;;;;5028475;28;20030;-67
2022/07/17 06:56:01;;;;;;;1.65;0.30;;;18.60;81.50;;;;;;5032517;28;20026;-66
2022/07/17 06:58:28;;;;;;;2.10;0.20;;;18.50;81.90;;;;;;5017680;28;20002;-67
2022/07/17 07:00:55;;;;;;;0.60;0.40;;;18.50;81.40;;;;;;5027712;28;20029;-66
2022/07/17 07:03:23;;;;;;;2.60;0.20;;;18.40;81.40;;;;;;5021087;28;20030;-67
2022/07/17 07:05:50;;;;;;;0.68;0.30;;;18.40;81.10;;;;;;5022602;28;20018;-66
2022/07/17 07:08:18;;;;;;;1.08;0.28;;;18.40;81.30;;;;;;5020297;28;20080;-67
2022/07/17 07:10:45;;;;;;;3.67;0.38;;;18.30;81.30;;;;;;5018393;28;20054;-68
2022/07/17 07:13:13;;;;;;;0.75;0.20;;;18.40;81.20;;;;;;5011642;28;20030;-67
2022/07/17 07:15:40;;;;;;;1.08;0.30;;;18.30;81.50;;;;;;5021377;28;20077;-66
2022/07/17 07:18:08;;;;;;;0.88;0.28;;;18.20;81.50;;;;;;5019850;28;20033;-66
2022/07/17 07:20:36;;;;;;;1.95;0.30;;;18.10;81.60;;;;;;5019971;28;20038;-67
2022/07/17 07:23:03;;;;;;;0.73;0.30;;;18.10;81.80;;;;;;5020578;28;20022;-66
2022/07/17 07:25:30;;;;;;;1.25;0.40;;;18.10;82.00;;;;;;5019155;28;20036;-65
2022/07/17 07:27:58;;;;;;;1.88;0.35;;;18.00;82.20;;;;;;5030533;28;20025;-66
2022/07/17 07:30:25;;;;;;;0.98;0.22;;;18.00;82.30;;;;;;5037509;28;20040;-66
2022/07/17 07:32:52;;;;;;;0.52;0.35;;;17.90;82.40;;;;;;5018852;28;20045;-65
2022/07/17 07:35:19;;;;;;;2.05;0.20;;;17.90;82.40;;;;;;5023986;28;20074;-66
2022/07/17 07:37:47;;;;;;;1.40;0.20;;;17.90;82.70;;;;;;5030654;28;20026;-66
2022/07/17 07:40:14;;;;;;;0.98;0.38;;;17.70;82.90;;;;;;5029555;28;20010;-67
2022/07/17 07:42:42;;;;;;;3.13;0.45;;;17.70;83.20;;;;;;5020281;28;20037;-66
2022/07/17 07:45:10;;;;;;;1.20;0.52;;;17.70;83.50;;;;;;5027728;28;20021;-66
2022/07/17 07:47:49;;;;;;;3.08;0.30;;;17.60;83.40;;;;;;5025100;28;20030;-66
2022/07/17 07:50:18;;;;;;;4.03;0.77;;;17.60;84.20;;;;;;5037376;28;20041;-67
2022/07/17 07:52:45;;;;;;;2.03;0.82;;;17.50;84.10;;;;;;5024714;28;20030;-67
2022/07/17 07:55:13;;;;;;;1.95;0.40;;;17.50;84.60;;;;;;5035248;28;20014;-66
2022/07/17 07:57:41;;;;;;;2.65;0.32;;;17.50;84.60;;;;;;5020999;28;20028;-67
2022/07/17 08:00:09;;;;;;;2.13;0.77;;;17.40;84.70;;;;;;5032243;28;20033;-67
2022/07/17 08:02:37;;;;;;;2.88;0.68;;;17.30;85.20;;;;;;5034150;28;20045;-67
2022/07/17 08:05:05;;;;;;;2.70;0.65;;;17.30;86.00;;;;;;5033701;28;21835;-64
2022/07/17 08:07:35;;;;;;;2.40;0.93;;;17.30;85.70;;;;;;5026304;28;20022;-65
2022/07/17 08:10:03;;;;;;;2.72;0.70;;;17.20;86.10;;;;;;5030159;28;20015;-65
2022/07/17 08:12:30;;;;;;;2.95;0.77;;;17.20;86.10;;;;;;5023352;28;20038;-65
2022/07/17 08:14:58;;;;;;;1.40;0.40;;;17.10;86.70;;;;;;5028070;28;20026;-66
2022/07/17 08:17:25;;;;;;;1.83;0.40;;;17.10;87.40;;;;;;5027634;28;20026;-65
2022/07/17 08:19:52;;;;;;;1.25;0.30;;;17.10;87.50;;;;;;5029432;28;20017;-65
2022/07/17 08:22:19;;;;;;;1.45;0.50;;;17.00;87.70;;;;;;5031490;28;20027;-65
2022/07/17 08:24:47;;;;;;;1.45;0.55;;;17.00;87.80;;;;;;5019860;28;20086;-65
2022/07/17 08:27:14;;;;;;;2.88;1.00;;;17.00;88.00;;;;;;5024100;28;20042;-65
2022/07/17 08:29:41;;;;;;;1.30;0.40;;;17.10;88.10;;;;;;5037119;28;20030;-65
2022/07/17 08:32:08;;;;;;;1.10;0.45;;;17.00;87.70;;;;;;5034809;28;20026;-65
2022/07/17 08:34:36;;;;;;;1.85;0.50;;;17.00;87.40;;;;;;5031462;28;20037;-65
2022/07/17 08:37:03;;;;;;;2.28;0.73;;;16.90;87.50;;;;;;5032485;28;20038;-66
2022/07/17 08:39:30;;;;;;;2.78;0.50;;;16.90;87.80;;;;;;5023588;28;20006;-65
2022/07/17 08:41:57;;;;;;;1.58;0.50;;;16.80;87.80;;;;;;5029649;28;20014;-65
2022/07/17 08:44:25;;;;;;;2.60;1.00;;;16.80;88.00;;;;;;5026581;28;20042;-66
2022/07/17 08:46:53;;;;;;;0.80;0.40;;;16.90;88.10;;;;;;5019104;28;20087;-66
2022/07/17 08:49:24;;;;;;;1.95;0.40;;;16.90;87.90;;;;;;5031228;28;20033;-66
2022/07/17 08:51:53;;;;;;;0.70;0.43;;;16.90;87.60;;;;;;5026805;28;20034;-67
2022/07/17 08:54:22;;;;;;;1.30;0.30;;;16.90;88.20;;;;;;5022639;28;20089;-67
2022/07/17 08:56:52;;;;;;;0.98;0.28;;;16.90;88.40;;;;;;5032607;28;20018;-67
2022/07/17 08:59:20;;;;;;;1.45;0.60;;;16.90;89.00;;;;;;5032235;28;20018;-66
2022/07/17 09:01:47;;;;;;;3.65;0.77;;;16.90;88.00;;;;;;5024125;28;20022;-66
2022/07/17 09:04:14;;;;;;;1.35;0.38;;;16.90;88.40;;;;;;5032619;28;20034;-66
2022/07/17 09:06:41;;;;;;;1.85;0.20;;;16.90;88.00;;;;;;5029539;28;20022;-65
2022/07/17 09:09:12;;;;;;;1.02;0.22;;;16.90;88.30;;;;;;5032872;28;20005;-65
2022/07/17 09:11:54;;;;;;;2.58;0.40;;;17.00;87.70;;;;;;5031981;28;20081;-65
2022/07/17 09:14:22;;;;;;;1.67;0.60;;;17.00;88.00;;;;;;5034681;28;20018;-65
2022/07/17 09:16:54;;;;;;;1.42;0.50;;;16.90;87.80;;;;;;5030625;28;20032;-65
2022/07/17 09:19:29;;;;;;;1.00;0.30;;;16.90;87.90;;;;;;5022788;28;20037;-65
2022/07/17 09:22:08;;;;;;;0.50;0.20;;;16.90;88.30;;;;;;5027199;28;20044;-66
2022/07/17 09:24:41;;;;;;;0.82;0.20;;;16.90;87.90;;;;;;5035111;28;20077;-65
2022/07/17 09:27:09;;;;;;;1.67;0.45;;;16.90;88.30;;;;;;5023006;28;20037;-66
2022/07/17 09:30:04;;;;;;;0.90;0.30;;;16.80;88.60;;;;;;5026917;28;20014;-66
2022/07/17 09:32:33;;;;;;;;;;;16.80;89.30;;;;;;5034230;28;20026;-65
2022/07/17 09:35:01;;;;;;;2.58;0.50;;;16.70;90.10;;;;;;5034760;28;19973;-66
2022/07/17 09:37:30;;;;;;;0.70;0.57;;;16.70;90.20;;;;;;5032124;28;20010;-66
2022/07/17 09:39:58;;;;;;;0.70;0.30;;;16.60;90.40;;;;;;5033746;28;20022;-66
2022/07/17 09:42:34;;;;;;;3.53;0.50;;;16.60;90.30;;;;;;5029734;28;20062;-66
2022/07/17 09:45:08;;;;;;;1.02;0.28;;;16.60;90.70;;;;;;5031776;28;20029;-67
2022/07/17 09:47:38;;;;;;;1.98;0.60;;;16.50;90.90;;;;;;5025961;28;20042;-66
2022/07/17 09:50:07;;;;;;;4.07;0.50;;;16.40;91.40;;;;;;5023292;28;20065;-67
2022/07/17 09:52:38;;;;;;;2.55;0.30;;;16.30;91.60;;;;;;5031966;28;20110;-66
2022/07/17 09:55:06;;;;;;;2.22;0.40;;;16.40;91.10;;;;;;5020184;28;20025;-67
2022/07/17 09:57:39;;;;;;;1.15;0.30;;;16.30;91.70;;;;;;5013439;28;20029;-67
2022/07/17 10:00:12;;;;;;;1.25;0.40;;;16.20;92.30;;;;;;5032372;28;20026;-67
2022/07/17 10:02:43;;;;;;;0.82;0.30;;;16.00;93.50;;;;;;5032479;28;20029;-68
2022/07/17 10:05:15;;;;;;;4.03;0.43;;;15.80;93.40;;;;;;5016208;28;20061;-67
2022/07/17 10:07:45;;;;;;;2.17;0.30;;;15.70;94.50;;;;;;5034135;28;20026;-66
2022/07/17 10:10:14;;;;;;;2.38;0.30;;;15.60;95.40;;;;;;5037149;28;20125;-67
2022/07/17 10:12:44;;;;;;;1.15;0.35;;;15.50;95.50;;;;;;5037314;28;20013;-67
2022/07/17 10:15:12;;;;;;;1.33;0.73;;;15.40;96.30;;;;;;5026373;28;20026;-66
2022/07/17 10:17:39;;;;;;;1.17;0.40;;;15.30;96.20;;;;;;5035171;28;20026;-67
2022/07/17 10:20:08;;;;;;;10.00;1.58;;;15.20;96.30;;;;;;5022237;28;20431;-67
2022/07/17 10:22:43;;;;;;;1.13;0.40;;;15.10;95.80;;;;;;5025706;28;20026;-66
2022/07/17 10:25:15;;;;;;;0.60;0.45;;;15.10;97.10;;;;;;5022450;28;20034;-66
2022/07/17 10:27:56;;;;;;;1.10;0.30;;;15.10;95.30;;;;;;5022160;28;20017;-67
2022/07/17 10:30:28;;;;;;;0.88;0.30;;;15.00;96.70;;;;;;5035060;28;20018;-66
2022/07/17 10:33:06;;;;;;;0.68;0.30;;;15.00;96.80;;;;;;5036552;28;20045;-66
2022/07/17 10:35:48;;;;;;;2.40;0.30;;;15.00;97.10;;;;;;5036520;28;20034;-66
2022/07/17 10:38:16;;;;;;;1.45;0.57;;;14.90;96.90;;;;;;5035382;28;20026;-66
2022/07/17 10:40:43;;;;;;;0.75;0.30;;;14.90;95.30;;;;;;5029794;28;20025;-66
2022/07/17 10:43:11;;;;;;;2.78;0.47;;;14.90;96.00;;;;;;5028056;28;20026;-66
2022/07/17 10:45:45;;;;;;;3.55;0.40;;;14.90;95.80;;;;;;5035494;28;20279;-66
2022/07/17 10:48:19;;;;;;;1.10;0.45;;;14.90;96.50;;;;;;5037042;28;20065;-66
2022/07/17 10:50:51;;;;;;;1.52;0.40;;;14.90;96.00;;;;;;5028144;28;20034;-66
2022/07/17 10:53:28;;;;;;;2.72;0.60;;;14.90;95.90;;;;;;5034572;28;20026;-66
2022/07/17 10:55:57;;;;;;;1.33;0.50;;;15.00;96.20;;;;;;5036296;28;20041;-66
2022/07/17 10:58:32;;;;;;;2.15;0.40;;;15.00;95.50;;;;;;5036096;28;20033;-66
2022/07/17 11:01:03;;;;;;;1.25;0.30;;;15.10;95.70;;;;;;5034754;28;20056;-66
2022/07/17 11:03:36;;;;;;;1.95;0.45;;;15.00;95.90;;;;;;5021494;28;20010;-66
2022/07/17 11:06:15;;;;;;;1.13;0.30;;;15.10;96.00;;;;;;5027009;28;20033;-67
2022/07/17 11:08:51;;;;;;;1.50;0.52;;;15.10;95.90;;;;;;5018667;28;20033;-67
2022/07/17 11:11:43;;;;;;;1.33;0.30;;;15.10;95.60;;;;;;5035427;28;20030;-66
2022/07/17 11:14:15;;;;;;;1.40;0.45;;;15.20;96.20;;;;;;5035637;28;20029;-66
2022/07/17 11:16:47;;;;;;;2.13;0.40;;;15.20;95.80;;;;;;5032513;28;20026;-67
2022/07/17 11:19:26;;;;;;;3.92;0.60;;;15.20;95.50;;;;;;5023873;28;20019;-68
2022/07/17 11:21:54;;;;;;;2.30;0.32;;;15.20;95.80;;;;;;5025242;28;20026;-68
2022/07/17 11:24:23;;;;;;;1.20;0.30;;;15.20;95.70;;;;;;5019527;28;20050;-68
2022/07/17 11:26:51;;;;;;;1.05;0.30;;;15.20;95.90;;;;;;5020916;28;20026;-67
2022/07/17 11:29:19;;;;;;;1.50;0.40;;;15.20;95.80;;;;;;5027247;28;20030;-68
2022/07/17 11:31:47;;;;;;;0.35;0.22;;;15.30;95.80;;;;;;5026743;28;20030;-67
2022/07/17 11:34:14;;;;;;;2.55;0.30;;;15.40;95.90;;;;;;5035324;28;20033;-66
2022/07/17 11:36:45;;;;;;;1.13;0.52;;;15.40;96.00;;;;;;5027126;28;20034;-66
2022/07/17 11:39:13;;;;;;;5.63;0.38;;;15.40;96.00;;;;;;5022774;28;20034;-66
2022/07/17 11:41:44;;;;;;;4.22;0.30;;;15.30;96.20;;;;;;5024117;28;20045;-67
2022/07/17 11:44:18;;;;;;;1.15;0.30;;;15.30;96.20;;;;;;5027583;28;20034;-67
2022/07/17 11:46:48;;;;;;;0.60;0.38;;;15.40;96.30;;;;;;5027249;28;20085;-67
2022/07/17 11:49:35;;;;;;;3.40;0.60;;;15.40;96.40;;;;;;5028930;28;20038;-66
2022/07/17 11:52:13;;;;;;;1.73;0.50;;;15.40;96.20;;;;;;5027773;28;20029;-66
2022/07/17 11:54:55;;;;;;;1.38;0.22;;;15.30;96.50;;;;;;5028324;28;20026;-66
2022/07/17 11:57:25;;;;;;;2.70;0.30;;;15.30;96.50;;;;;;5025190;28;20065;-66
2022/07/17 11:59:54;;;;;;;1.48;0.20;;;15.40;96.30;;;;;;5029712;28;20009;-66
2022/07/17 12:02:29;;;;;;;1.33;0.40;;;15.30;96.60;;;;;;5033268;28;20042;-66
2022/07/17 12:04:59;;;;;;;0.63;0.28;;;15.20;96.70;;;;;;5035281;28;20006;-66
2022/07/17 12:07:40;;;;;;;2.35;0.30;;;15.20;97.20;;;;;;5023912;28;20056;-66
2022/07/17 12:10:23;;;;;;;4.20;0.20;;;15.20;97.10;;;;;;5032240;28;20594;-65
2022/07/17 12:13:01;;;;;;;1.27;0.70;;;15.10;97.30;;;;;;5026830;28;20120;-66
2022/07/17 12:15:38;;;;;;;2.13;0.50;;;15.10;97.20;;;;;;5028204;28;20038;-68
2022/07/17 12:18:09;;;;;;;0.70;0.20;;;15.10;97.70;;;;;;5028017;28;20025;-66
2022/07/17 12:20:48;;;;;;;1.20;0.28;;;15.10;97.60;;;;;;5035847;28;20029;-66
2022/07/17 12:23:32;;;;;;;0.82;0.20;;;15.00;98.00;;;;;;5036257;28;20145;-66
2022/07/17 12:26:06;;;;;;;1.48;0.30;;;14.90;98.40;;;;;;5033849;28;20010;-65
2022/07/17 12:28:34;;;;;;;1.80;0.38;;;14.90;98.80;;;;;;5031025;28;20034;-66
2022/07/17 12:31:02;;;;;;;1.95;0.60;;;14.80;98.90;;;;;;5028344;28;20078;-66
2022/07/17 12:33:29;;;;;;;2.50;0.30;;;14.80;99.30;;;;;;5036297;28;20025;-65
2022/07/17 12:35:56;;;;;;;1.60;0.30;;;14.70;99.10;;;;;;5036553;28;20034;-66
2022/07/17 12:38:23;;;;;;;4.00;0.47;;;14.70;98.80;;;;;;5035342;28;20034;-66
2022/07/17 12:40:51;;;;;;;0.68;0.22;;;14.70;99.20;;;;;;5036082;28;20022;-66
2022/07/17 12:43:18;;;;;;;1.52;0.22;;;14.70;99.60;;;;;;5036388;28;20090;-66
2022/07/17 12:45:45;;;;;;;3.15;0.20;;;14.60;99.90;;;;;;5034836;28;20098;-65
2022/07/17 12:48:13;;;;;;;1.13;0.20;;;14.60;99.90;;;;;;5024609;28;20062;-66
2022/07/17 12:50:41;;;;;;;0.60;0.22;;;14.50;99.90;;;;;;5029275;28;20076;-66
2022/07/17 12:53:08;;;;;;;1.85;0.40;;;14.50;99.90;;;;;;5034852;28;20030;-66
2022/07/17 12:55:38;;;;;;;0.88;0.10;;;14.50;99.90;;;;;;5033954;28;20125;-66
2022/07/17 12:58:06;;;;;;;1.38;0.20;;;14.50;99.90;;;;;;5025512;28;20100;-66